Time;durP1;ratioP1;P1;durP2;ratioP2;P2;SDS_P1;SDS_P2;PMS_P1;PMS_P2;Temp;Humidity;BMP_temperature;BMP_pressure;BME280_temperature;BME280_humidity;BME280_pressure;Samples;Min_cycle;Max_cycle;Signal;HPM_P1;HPM_P2
2021/05/03 00:01:50;;;;;;;0.95;0.50;;;14.50;57.10;;;;;;6143970;23;20018;-74
2021/05/03 00:04:16;;;;;;;1.85;0.50;;;14.60;57.10;;;;;;6144511;23;20092;-75
2021/05/03 00:06:41;;;;;;;1.30;0.40;;;14.60;57.20;;;;;;6169555;23;20079;-74
2021/05/03 00:09:07;;;;;;;0.50;0.30;;;14.60;57.10;;;;;;6169593;23;20005;-75
2021/05/03 00:11:33;;;;;;;0.85;0.60;;;14.50;57.10;;;;;;6160393;23;20145;-75
2021/05/03 00:14:00;;;;;;;1.92;0.47;;;14.50;57.10;;;;;;6159670;23;20021;-74
2021/05/03 00:16:26;;;;;;;1.55;0.47;;;14.50;57.10;;;;;;6159438;23;20019;-75
2021/05/03 00:18:52;;;;;;;0.70;0.38;;;14.50;57.10;;;;;;6169457;23;20080;-74
2021/05/03 00:21:18;;;;;;;0.50;0.38;;;14.50;57.10;;;;;;6169845;23;20009;-75
2021/05/03 00:23:44;;;;;;;1.58;0.60;;;14.50;57.10;;;;;;6170019;23;20033;-75
2021/05/03 00:26:13;;;;;;;1.60;0.45;;;14.50;57.70;;;;;;6159774;23;20021;-75
2021/05/03 00:28:39;;;;;;;1.13;0.52;;;14.50;57.00;;;;;;6160018;23;20010;-74
2021/05/03 00:31:05;;;;;;;1.23;0.40;;;14.50;57.00;;;;;;6168928;23;20295;-74
2021/05/03 00:33:31;;;;;;;0.80;0.40;;;14.50;57.00;;;;;;6169270;23;20019;-75
2021/05/03 00:35:57;;;;;;;0.63;0.35;;;14.50;56.90;;;;;;6159988;23;20335;-74
2021/05/03 00:38:23;;;;;;;0.40;0.30;;;14.50;56.90;;;;;;6168934;23;20075;-75
2021/05/03 00:40:49;;;;;;;0.73;0.30;;;14.50;56.90;;;;;;6169500;23;20071;-75
2021/05/03 00:43:20;;;;;;;0.75;0.40;;;14.50;56.90;;;;;;6164285;23;20018;-74
2021/05/03 00:45:50;;;;;;;1.05;0.50;;;14.50;57.00;;;;;;6159271;23;20021;-75
2021/05/03 00:48:16;;;;;;;0.63;0.50;;;14.50;57.10;;;;;;6169619;23;20060;-75
2021/05/03 00:50:43;;;;;;;0.88;0.32;;;14.50;57.10;;;;;;6169460;23;20013;-74
2021/05/03 00:53:09;;;;;;;0.47;0.30;;;14.50;57.10;;;;;;6159067;23;20017;-76
2021/05/03 00:55:35;;;;;;;0.45;0.30;;;14.50;57.10;;;;;;6159126;23;20017;-75
2021/05/03 00:58:03;;;;;;;0.55;0.35;;;14.50;57.10;;;;;;6169113;23;20016;-75
2021/05/03 01:00:30;;;;;;;1.85;0.50;;;14.50;57.10;;;;;;6169544;23;20013;-74
2021/05/03 01:02:57;;;;;;;1.02;0.40;;;14.50;57.10;;;;;;6169707;23;20072;-74
2021/05/03 01:05:27;;;;;;;0.82;0.40;;;14.50;57.10;;;;;;6169385;23;20009;-74
2021/05/03 01:07:53;;;;;;;0.75;0.43;;;14.40;57.10;;;;;;6159133;23;20358;-75
2021/05/03 01:10:19;;;;;;;0.80;0.43;;;14.40;57.10;;;;;;6168845;23;20064;-75
2021/05/03 01:12:45;;;;;;;1.15;0.40;;;14.50;57.20;;;;;;6168370;23;20064;-74
2021/05/03 01:15:12;;;;;;;1.42;0.63;;;14.50;57.10;;;;;;6159316;23;20084;-75
2021/05/03 01:17:41;;;;;;;0.52;0.38;;;14.50;57.10;;;;;;6159407;23;20010;-75
2021/05/03 01:20:08;;;;;;;0.50;0.30;;;14.50;57.10;;;;;;6159504;23;20036;-75
2021/05/03 01:22:35;;;;;;;0.65;0.30;;;14.50;57.10;;;;;;6169302;23;20016;-75
2021/05/03 01:25:02;;;;;;;1.65;0.50;;;14.50;57.10;;;;;;6159075;23;20025;-75
2021/05/03 01:27:27;;;;;;;1.13;0.45;;;14.40;57.10;;;;;;6158898;23;20009;-75
2021/05/03 01:29:53;;;;;;;0.70;0.30;;;14.40;57.10;;;;;;6168879;23;20041;-74
2021/05/03 01:32:19;;;;;;;0.40;0.32;;;14.40;57.10;;;;;;6158860;23;20018;-74
2021/05/03 01:34:45;;;;;;;0.82;0.30;;;14.50;57.20;;;;;;6168537;23;20052;-74
2021/05/03 01:37:14;;;;;;;0.93;0.40;;;14.40;57.20;;;;;;6159000;23;20024;-74
2021/05/03 01:39:40;;;;;;;0.50;0.40;;;14.40;57.20;;;;;;6169388;23;20009;-74
2021/05/03 01:42:07;;;;;;;0.60;0.40;;;14.40;57.20;;;;;;6159303;23;20013;-75
2021/05/03 01:44:33;;;;;;;0.90;0.38;;;14.40;57.30;;;;;;6168648;23;20009;-75
2021/05/03 01:47:00;;;;;;;0.80;0.40;;;14.40;57.20;;;;;;6160894;23;20017;-75
2021/05/03 01:49:27;;;;;;;1.40;0.60;;;14.40;57.20;;;;;;6168737;23;20025;-74
2021/05/03 01:51:53;;;;;;;0.93;0.60;;;14.40;57.20;;;;;;6168739;23;20041;-75
2021/05/03 01:54:20;;;;;;;0.93;0.40;;;14.40;57.20;;;;;;6168663;23;20024;-75
2021/05/03 01:56:47;;;;;;;0.57;0.40;;;14.40;57.20;;;;;;6168905;23;20017;-75
2021/05/03 01:59:12;;;;;;;1.00;0.50;;;14.40;57.30;;;;;;6168522;23;20017;-75
2021/05/03 02:01:39;;;;;;;0.95;0.50;;;14.40;57.30;;;;;;6168492;23;20009;-74
2021/05/03 02:04:08;;;;;;;1.35;0.50;;;14.40;57.30;;;;;;6168792;23;20014;-74
2021/05/03 02:06:37;;;;;;;0.60;0.30;;;14.40;57.30;;;;;;6168455;23;20014;-75
2021/05/03 02:09:06;;;;;;;1.02;0.40;;;14.40;57.30;;;;;;6168049;23;20415;-75
2021/05/03 02:11:32;;;;;;;0.47;0.38;;;14.40;57.30;;;;;;6158380;23;20419;-75
2021/05/03 02:13:58;;;;;;;1.00;0.40;;;14.40;57.30;;;;;;6168257;23;20024;-75
2021/05/03 02:16:24;;;;;;;1.10;0.40;;;14.40;57.30;;;;;;6158375;23;20041;-75
2021/05/03 02:18:49;;;;;;;0.80;0.55;;;14.40;57.30;;;;;;6158734;23;20092;-74
2021/05/03 02:21:15;;;;;;;0.90;0.35;;;14.40;57.30;;;;;;6167964;23;20021;-74
2021/05/03 02:23:41;;;;;;;0.77;0.50;;;14.40;57.20;;;;;;6158195;23;20009;-74
2021/05/03 02:26:07;;;;;;;0.82;0.52;;;14.40;57.20;;;;;;6167843;23;20017;-75
2021/05/03 02:28:33;;;;;;;1.50;0.30;;;14.40;57.30;;;;;;6158666;23;20088;-75
2021/05/03 02:30:58;;;;;;;1.35;0.40;;;14.40;57.30;;;;;;6168250;23;20016;-74
2021/05/03 02:33:24;;;;;;;0.88;0.52;;;14.40;57.30;;;;;;6158501;23;20104;-74
2021/05/03 02:35:50;;;;;;;1.48;0.60;;;14.40;57.30;;;;;;6168326;23;20411;-74
2021/05/03 02:38:16;;;;;;;0.73;0.50;;;14.30;57.30;;;;;;6167690;23;20067;-74
2021/05/03 02:40:42;;;;;;;0.93;0.45;;;14.40;57.30;;;;;;6168850;23;20044;-75
2021/05/03 02:43:08;;;;;;;1.02;0.40;;;14.30;57.20;;;;;;6168174;23;20014;-74
2021/05/03 02:45:35;;;;;;;0.60;0.30;;;14.30;57.30;;;;;;6165569;23;20088;-74
2021/05/03 02:48:03;;;;;;;0.68;0.40;;;14.40;57.20;;;;;;6158526;23;20013;-74
2021/05/03 02:50:29;;;;;;;1.38;0.60;;;14.30;57.10;;;;;;6167973;23;20028;-75
2021/05/03 02:52:55;;;;;;;0.70;0.40;;;14.30;57.10;;;;;;6168212;23;20037;-74
2021/05/03 02:55:25;;;;;;;0.57;0.40;;;14.30;57.00;;;;;;6159426;23;20018;-74
2021/05/03 02:57:51;;;;;;;1.20;0.50;;;14.40;57.10;;;;;;6168006;23;20088;-74
2021/05/03 03:00:36;;;;;;;0.90;0.50;;;14.30;57.10;;;;;;6168035;23;20335;-74
2021/05/03 03:03:03;;;;;;;0.82;0.60;;;14.30;57.20;;;;;;6167984;23;20107;-74
2021/05/03 03:05:29;;;;;;;1.55;0.73;;;14.30;57.30;;;;;;6158002;23;20037;-74
2021/05/03 03:08:01;;;;;;;0.88;0.55;;;14.40;57.40;;;;;;6158438;23;20036;-74
2021/05/03 03:10:28;;;;;;;0.73;0.60;;;14.30;57.30;;;;;;6168047;23;20020;-74
2021/05/03 03:12:55;;;;;;;1.15;0.40;;;14.30;57.30;;;;;;6168615;23;20044;-74
2021/05/03 03:15:23;;;;;;;1.27;0.55;;;14.30;57.40;;;;;;6167910;23;20013;-74
2021/05/03 03:17:50;;;;;;;0.90;0.47;;;14.30;57.40;;;;;;6157975;23;20024;-75
2021/05/03 03:20:18;;;;;;;0.50;0.40;;;14.30;57.50;;;;;;6158850;23;20155;-75
2021/05/03 03:22:44;;;;;;;0.75;0.50;;;14.30;57.40;;;;;;6167864;23;20033;-75
2021/05/03 03:25:10;;;;;;;0.75;0.40;;;14.30;57.50;;;;;;6158214;23;20041;-74
2021/05/03 03:27:36;;;;;;;1.35;0.60;;;14.30;57.50;;;;;;6167526;23;20080;-74
2021/05/03 03:30:04;;;;;;;0.88;0.52;;;14.30;57.50;;;;;;6167887;23;20013;-74
2021/05/03 03:32:30;;;;;;;1.50;0.35;;;14.30;57.50;;;;;;6158916;23;20013;-75
2021/05/03 03:34:56;;;;;;;1.15;0.50;;;14.30;57.50;;;;;;6170256;23;20014;-75
2021/05/03 03:37:22;;;;;;;1.27;0.60;;;14.30;57.50;;;;;;6170313;23;20014;-74
2021/05/03 03:39:50;;;;;;;1.23;0.60;;;14.30;57.50;;;;;;6169419;23;20013;-75
2021/05/03 03:42:15;;;;;;;2.75;0.50;;;14.30;57.50;;;;;;6170051;23;20005;-74
2021/05/03 03:44:41;;;;;;;1.45;0.73;;;14.30;57.50;;;;;;6169403;23;20018;-75
2021/05/03 03:47:07;;;;;;;1.40;0.65;;;14.30;57.60;;;;;;6161796;23;20097;-74
2021/05/03 03:49:33;;;;;;;2.75;0.80;;;14.30;57.60;;;;;;6170018;23;20013;-74
2021/05/03 03:51:59;;;;;;;1.00;0.60;;;14.30;57.70;;;;;;6169406;23;20072;-74
2021/05/03 03:54:25;;;;;;;1.35;0.70;;;14.30;57.70;;;;;;6160122;23;20013;-74
2021/05/03 03:56:51;;;;;;;0.95;0.68;;;14.30;57.70;;;;;;6169332;23;20438;-74
2021/05/03 03:59:17;;;;;;;2.50;0.90;;;14.30;57.70;;;;;;6169646;23;20009;-74
2021/05/03 04:01:44;;;;;;;1.83;0.70;;;14.30;57.80;;;;;;6170201;23;20041;-74
2021/05/03 04:04:18;;;;;;;1.13;0.80;;;14.30;57.80;;;;;;6169743;23;20024;-74
2021/05/03 04:06:51;;;;;;;1.05;0.70;;;14.20;57.70;;;;;;6159863;23;20024;-74
2021/05/03 04:09:43;;;;;;;0.90;0.80;;;14.30;57.80;;;;;;6160643;23;20013;-74
2021/05/03 04:25:34;;;;;;;2.30;1.00;;;14.20;57.90;;;;;;6169724;23;20444;-74
2021/05/03 04:28:01;;;;;;;1.20;0.88;;;14.20;57.90;;;;;;6159516;23;20017;-74
2021/05/03 04:30:27;;;;;;;2.00;1.10;;;14.30;57.90;;;;;;6169056;23;20269;-74
2021/05/03 04:32:53;;;;;;;1.55;0.80;;;14.20;57.80;;;;;;6169875;23;20005;-75
2021/05/03 04:35:18;;;;;;;1.30;0.95;;;14.20;57.80;;;;;;6169878;23;20009;-74
2021/05/03 04:37:44;;;;;;;2.00;1.00;;;14.20;57.80;;;;;;6169613;23;20024;-74
2021/05/03 04:40:11;;;;;;;1.52;1.00;;;14.30;57.90;;;;;;6169152;23;20014;-74
2021/05/03 04:42:37;;;;;;;1.60;1.00;;;14.20;57.90;;;;;;6159560;23;20013;-75
2021/05/03 04:45:03;;;;;;;1.65;0.90;;;14.20;58.00;;;;;;6168650;23;20399;-75
2021/05/03 04:47:29;;;;;;;1.75;1.00;;;14.20;57.90;;;;;;6159184;23;20045;-75
2021/05/03 04:49:56;;;;;;;1.63;0.95;;;14.20;57.80;;;;;;6159551;23;20040;-74
2021/05/03 04:52:21;;;;;;;1.02;0.90;;;14.20;57.80;;;;;;6169073;23;20080;-74
2021/05/03 04:54:47;;;;;;;1.48;0.90;;;14.20;57.90;;;;;;6159297;23;20025;-74
2021/05/03 04:57:13;;;;;;;1.65;1.05;;;14.20;57.90;;;;;;6159598;23;20079;-75
2021/05/03 04:59:39;;;;;;;1.30;1.00;;;14.20;57.90;;;;;;6169834;23;20013;-74
2021/05/03 05:02:05;;;;;;;0.73;0.60;;;14.20;57.90;;;;;;6169120;23;20006;-75
2021/05/03 05:04:31;;;;;;;2.05;1.00;;;14.20;57.90;;;;;;6158706;23;20040;-74
2021/05/03 05:06:59;;;;;;;2.22;1.17;;;14.20;57.80;;;;;;6169517;23;20013;-74
2021/05/03 05:09:25;;;;;;;1.60;0.95;;;14.20;57.80;;;;;;6168935;23;20013;-74
2021/05/03 05:11:51;;;;;;;1.67;0.95;;;14.20;57.80;;;;;;6169167;23;20010;-74
2021/05/03 05:14:17;;;;;;;1.23;0.85;;;14.20;57.80;;;;;;6159038;23;20310;-74
2021/05/03 05:16:44;;;;;;;1.35;1.00;;;14.20;57.80;;;;;;6159031;23;20172;-75
2021/05/03 05:19:10;;;;;;;1.10;0.90;;;14.20;57.80;;;;;;6159939;23;20020;-74
2021/05/03 05:21:37;;;;;;;1.08;0.80;;;14.20;57.80;;;;;;6159509;23;20361;-74
2021/05/03 05:24:04;;;;;;;2.10;0.93;;;14.20;57.90;;;;;;6159431;23;20009;-74
2021/05/03 05:26:29;;;;;;;1.38;0.93;;;14.20;58.00;;;;;;6143209;23;20076;-74
2021/05/03 05:28:55;;;;;;;2.10;1.10;;;14.20;58.00;;;;;;6159066;23;20010;-74
2021/05/03 05:31:21;;;;;;;1.75;1.20;;;14.20;58.10;;;;;;6168758;23;20072;-75
2021/05/03 05:33:47;;;;;;;1.30;1.20;;;14.20;58.10;;;;;;6168607;23;20017;-74
2021/05/03 05:36:13;;;;;;;2.05;1.35;;;14.20;58.10;;;;;;6158805;23;20060;-74
2021/05/03 05:38:39;;;;;;;1.80;1.40;;;14.20;58.10;;;;;;6168416;23;20021;-74
2021/05/03 05:41:05;;;;;;;2.72;1.38;;;14.20;58.10;;;;;;6168647;23;20009;-74
2021/05/03 05:43:32;;;;;;;2.80;1.50;;;14.20;58.20;;;;;;6159220;23;20303;-74
2021/05/03 05:45:58;;;;;;;2.03;1.42;;;14.20;58.20;;;;;;6165176;23;20018;-74
2021/05/03 05:48:23;;;;;;;2.67;2.00;;;14.20;58.20;;;;;;6158913;23;20327;-75
2021/05/03 05:50:50;;;;;;;2.28;1.95;;;14.20;58.30;;;;;;6169118;23;20013;-74
2021/05/03 05:53:16;;;;;;;2.75;2.00;;;14.20;58.30;;;;;;6168699;23;20071;-74
2021/05/03 05:55:42;;;;;;;3.00;2.30;;;14.20;58.30;;;;;;6168447;23;20017;-74
2021/05/03 05:58:08;;;;;;;2.70;1.98;;;14.20;58.40;;;;;;6168564;23;20014;-74
2021/05/03 06:00:34;;;;;;;2.30;1.80;;;14.20;59.00;;;;;;6168095;23;20009;-75
2021/05/03 06:03:00;;;;;;;2.35;1.98;;;14.20;58.40;;;;;;6168477;23;20296;-74
2021/05/03 06:05:26;;;;;;;2.53;2.20;;;14.20;58.40;;;;;;6168403;23;20009;-74
2021/05/03 06:07:52;;;;;;;3.80;2.30;;;14.20;58.40;;;;;;6168441;23;20403;-74
2021/05/03 06:10:18;;;;;;;4.18;2.28;;;14.20;58.50;;;;;;6169113;23;20396;-74
2021/05/03 06:12:43;;;;;;;2.70;2.17;;;14.20;58.50;;;;;;6158597;23;20025;-75
2021/05/03 06:15:09;;;;;;;3.60;2.67;;;14.20;58.50;;;;;;6167976;23;20017;-74
2021/05/03 06:17:35;;;;;;;3.28;2.60;;;14.20;58.40;;;;;;6167919;23;20014;-74
2021/05/03 06:20:03;;;;;;;2.83;2.50;;;14.20;58.50;;;;;;6168292;23;20406;-74
2021/05/03 06:22:30;;;;;;;3.28;2.50;;;14.20;58.40;;;;;;6168236;23;20009;-74
2021/05/03 06:24:56;;;;;;;4.40;2.58;;;14.10;58.40;;;;;;6168535;23;20021;-74
2021/05/03 06:27:22;;;;;;;3.17;2.55;;;14.20;58.50;;;;;;6168089;23;20084;-75
2021/05/03 06:29:48;;;;;;;4.00;2.97;;;14.20;58.40;;;;;;6168193;23;20009;-74
2021/05/03 06:32:13;;;;;;;3.95;2.75;;;14.20;58.40;;;;;;6167634;23;20013;-75
2021/05/03 06:34:39;;;;;;;4.82;3.15;;;14.20;58.40;;;;;;6168867;23;20037;-74
2021/05/03 06:37:05;;;;;;;3.30;2.83;;;14.20;58.50;;;;;;6168854;23;20013;-74
2021/05/03 06:39:31;;;;;;;3.75;3.08;;;14.20;58.50;;;;;;6158268;23;20010;-74
2021/05/03 06:41:57;;;;;;;6.20;3.40;;;14.20;58.50;;;;;;6168341;23;20009;-74
2021/05/03 06:44:22;;;;;;;4.60;3.25;;;14.20;58.50;;;;;;6167697;23;20335;-75
2021/05/03 06:46:48;;;;;;;4.28;3.20;;;14.20;58.50;;;;;;6160966;23;20010;-74
2021/05/03 06:49:15;;;;;;;4.20;3.38;;;14.20;58.50;;;;;;6168100;23;20399;-74
2021/05/03 06:51:41;;;;;;;4.10;3.30;;;14.20;58.50;;;;;;6158667;23;20036;-74
2021/05/03 06:54:07;;;;;;;4.88;3.10;;;14.20;58.60;;;;;;6158256;23;20013;-74
2021/05/03 06:56:33;;;;;;;3.97;3.45;;;14.20;59.20;;;;;;6168359;23;20071;-74
2021/05/03 06:58:58;;;;;;;5.30;4.13;;;14.20;58.60;;;;;;6168286;23;20041;-75
2021/05/03 07:01:24;;;;;;;4.25;3.45;;;14.10;58.50;;;;;;6167731;23;20017;-75
2021/05/03 07:03:50;;;;;;;4.53;3.40;;;14.20;58.60;;;;;;6168093;23;20009;-74
2021/05/03 07:06:16;;;;;;;4.22;3.42;;;14.20;59.30;;;;;;6157926;23;20013;-74
2021/05/03 07:08:42;;;;;;;4.53;3.25;;;14.20;58.70;;;;;;6168252;23;20072;-74
2021/05/03 07:11:13;;;;;;;4.20;3.35;;;14.10;58.70;;;;;;6167635;23;20041;-74
2021/05/03 07:13:38;;;;;;;4.75;3.55;;;14.10;58.70;;;;;;6167463;23;20399;-74
2021/05/03 07:16:05;;;;;;;3.97;3.28;;;14.10;58.60;;;;;;6159018;23;20009;-75
2021/05/03 07:18:31;;;;;;;5.22;4.00;;;14.20;58.70;;;;;;6167663;23;20430;-74
2021/05/03 07:20:57;;;;;;;4.65;3.83;;;14.20;58.70;;;;;;6167806;23;20020;-74
2021/05/03 07:23:22;;;;;;;6.22;4.30;;;14.20;58.70;;;;;;6167861;23;20024;-75
2021/05/03 07:25:48;;;;;;;4.72;3.65;;;14.20;58.70;;;;;;6142226;23;20013;-74
2021/05/03 07:28:14;;;;;;;6.03;4.07;;;14.20;58.70;;;;;;6167454;23;20080;-75
2021/05/03 07:30:40;;;;;;;4.85;3.97;;;14.20;58.70;;;;;;6167953;23;20017;-74
2021/05/03 07:33:06;;;;;;;6.10;3.72;;;14.20;58.80;;;;;;6167734;23;20017;-74
2021/05/03 07:35:32;;;;;;;5.80;3.83;;;14.20;58.80;;;;;;6158820;23;20014;-74
2021/05/03 07:37:58;;;;;;;6.32;3.90;;;14.20;58.80;;;;;;6168460;23;20399;-74
2021/05/03 07:40:24;;;;;;;4.65;3.72;;;14.20;58.90;;;;;;6167422;23;20356;-74
2021/05/03 07:42:50;;;;;;;8.38;4.70;;;14.20;58.90;;;;;;6167605;23;20410;-74
2021/05/03 07:45:16;;;;;;;5.03;4.00;;;14.20;59.00;;;;;;6166735;23;20018;-75
2021/05/03 07:47:44;;;;;;;6.45;4.13;;;14.20;59.00;;;;;;6157986;23;20009;-74
2021/05/03 07:50:11;;;;;;;4.18;3.70;;;14.20;59.10;;;;;;6167751;23;20020;-74
2021/05/03 07:52:37;;;;;;;6.88;4.00;;;14.20;59.10;;;;;;6158039;23;20080;-75
2021/05/03 07:55:05;;;;;;;6.38;4.07;;;14.10;59.10;;;;;;6157857;23;20021;-74
2021/05/03 07:57:30;;;;;;;5.57;4.03;;;14.20;59.20;;;;;;6168319;23;20037;-74
2021/05/03 07:59:56;;;;;;;6.05;4.50;;;14.20;59.20;;;;;;6168025;23;20017;-75
2021/05/03 08:02:22;;;;;;;5.15;4.13;;;14.20;59.20;;;;;;6168102;23;20005;-74
2021/05/03 08:04:48;;;;;;;6.38;4.20;;;14.20;59.20;;;;;;6167938;23;20014;-74
2021/05/03 08:07:14;;;;;;;5.38;4.10;;;14.20;59.20;;;;;;6167524;23;20013;-75
2021/05/03 08:09:40;;;;;;;6.78;3.90;;;14.20;59.20;;;;;;6167602;23;20018;-75
2021/05/03 08:12:08;;;;;;;5.55;3.75;;;14.20;59.20;;;;;;6167558;23;20040;-74
2021/05/03 08:14:34;;;;;;;4.78;3.60;;;14.20;59.20;;;;;;6168022;23;20017;-74
2021/05/03 08:17:12;;;;;;;6.13;3.45;;;14.20;59.80;;;;;;6167698;23;20044;-75
2021/05/03 08:19:37;;;;;;;5.65;3.90;;;14.20;59.20;;;;;;6159793;23;20037;-74
2021/05/03 08:22:04;;;;;;;3.88;2.60;;;14.20;59.30;;;;;;6169454;23;20413;-75
2021/05/03 08:24:31;;;;;;;4.45;3.45;;;14.20;59.30;;;;;;6169032;23;20446;-74
2021/05/03 08:26:59;;;;;;;5.40;2.97;;;14.20;59.30;;;;;;6159997;23;20010;-75
2021/05/03 08:29:25;;;;;;;4.72;3.35;;;14.20;59.30;;;;;;6169892;23;20036;-74
2021/05/03 08:31:51;;;;;;;4.63;2.97;;;14.20;59.40;;;;;;6169152;23;20013;-74
2021/05/03 08:34:18;;;;;;;4.95;3.10;;;14.20;59.30;;;;;;6169125;23;20285;-75
2021/05/03 08:36:44;;;;;;;3.85;2.83;;;14.20;59.40;;;;;;6168952;23;20025;-74
2021/05/03 08:39:10;;;;;;;3.67;2.53;;;14.20;59.40;;;;;;6169258;23;20014;-74
2021/05/03 08:41:37;;;;;;;4.90;3.25;;;14.20;59.40;;;;;;6169249;23;20017;-75
2021/05/03 08:44:05;;;;;;;4.70;2.50;;;14.20;59.40;;;;;;6169120;23;20084;-75
2021/05/03 08:46:33;;;;;;;3.85;3.15;;;14.20;59.40;;;;;;6163566;23;20037;-74
2021/05/03 08:54:02;;;;;;;3.75;2.83;;;14.20;59.50;;;;;;6169013;23;20066;-74
2021/05/03 08:56:28;;;;;;;4.90;2.72;;;14.20;59.50;;;;;;6169152;23;20009;-75
2021/05/03 08:58:53;;;;;;;4.35;2.85;;;14.30;59.70;;;;;;6169811;23;20040;-74
2021/05/03 09:01:21;;;;;;;4.70;2.53;;;14.30;59.70;;;;;;6169430;23;20350;-75
2021/05/03 09:03:51;;;;;;;3.55;2.50;;;14.30;59.70;;;;;;6169237;23;20013;-74
2021/05/03 09:06:17;;;;;;;3.28;2.30;;;14.30;59.70;;;;;;6159049;23;20489;-74
2021/05/03 09:08:43;;;;;;;3.60;2.55;;;14.30;59.70;;;;;;6168641;23;20064;-74
2021/05/03 09:11:14;;;;;;;3.55;2.45;;;14.30;59.70;;;;;;6159314;23;20017;-75
2021/05/03 09:13:41;;;;;;;3.78;2.38;;;14.30;59.70;;;;;;6169254;23;20017;-75
2021/05/03 09:16:22;;;;;;;4.80;2.53;;;14.30;59.70;;;;;;6169641;23;20020;-75
2021/05/03 09:18:49;;;;;;;5.47;2.35;;;14.30;59.70;;;;;;6168479;23;20017;-75
2021/05/03 09:21:21;;;;;;;3.75;2.17;;;14.30;59.70;;;;;;6168844;23;20084;-75
2021/05/03 09:24:02;;;;;;;3.30;2.38;;;14.30;59.70;;;;;;6132870;23;20415;-74
2021/05/03 09:26:36;;;;;;;3.40;2.40;;;14.30;59.80;;;;;;6168518;23;20017;-75
2021/05/03 09:29:22;;;;;;;;;;;14.30;59.70;;;;;;6168774;23;20303;-75
2021/05/03 09:32:01;;;;;;;4.40;2.55;;;14.30;59.70;;;;;;6158932;23;19923;-75
2021/05/03 09:34:29;;;;;;;3.13;2.33;;;14.30;59.70;;;;;;6158459;23;20478;-74
2021/05/03 09:37:29;;;;;;;4.15;2.42;;;14.30;59.70;;;;;;6168389;23;20106;-74
2021/05/03 09:40:00;;;;;;;5.30;2.67;;;14.40;59.70;;;;;;6159643;23;20306;-74
2021/05/03 09:42:43;;;;;;;3.53;2.58;;;14.30;59.70;;;;;;6168705;23;20033;-74
2021/05/03 09:45:30;;;;;;;3.33;2.10;;;14.30;59.70;;;;;;6158098;23;20045;-75
2021/05/03 09:47:58;;;;;;;3.25;2.22;;;14.40;59.70;;;;;;6158455;23;20422;-75
2021/05/03 09:50:26;;;;;;;3.63;2.38;;;14.40;59.80;;;;;;6168333;23;20303;-75
2021/05/03 09:53:13;;;;;;;4.50;2.72;;;14.40;59.80;;;;;;6159208;23;20093;-75
2021/05/03 09:55:42;;;;;;;5.50;2.55;;;14.40;59.80;;;;;;6168514;23;20025;-75
2021/05/03 09:58:13;;;;;;;4.57;2.80;;;14.40;60.40;;;;;;6169207;23;20064;-75
2021/05/03 10:00:47;;;;;;;3.47;2.38;;;14.40;59.70;;;;;;6168485;23;20013;-74
2021/05/03 10:03:43;;;;;;;4.05;2.38;;;14.40;59.70;;;;;;6168521;23;20009;-75
2021/05/03 10:06:13;;;;;;;4.18;2.53;;;14.40;59.70;;;;;;6168476;23;20079;-75
2021/05/03 10:08:42;;;;;;;3.22;2.20;;;14.40;59.70;;;;;;6168565;23;20018;-75
2021/05/03 10:11:10;;;;;;;4.15;2.47;;;14.40;59.70;;;;;;6142805;23;20021;-74
2021/05/03 10:13:38;;;;;;;2.55;2.08;;;14.40;59.60;;;;;;6168922;23;20084;-75
2021/05/03 10:16:07;;;;;;;2.85;2.30;;;14.40;59.60;;;;;;6168391;23;20411;-75
2021/05/03 10:18:36;;;;;;;3.47;2.47;;;14.40;59.60;;;;;;6158029;23;20013;-75
2021/05/03 10:21:06;;;;;;;3.72;2.33;;;14.40;59.60;;;;;;6168198;23;20024;-74
2021/05/03 10:23:32;;;;;;;3.63;2.17;;;14.40;59.60;;;;;;6168933;23;20080;-75
2021/05/03 10:25:59;;;;;;;4.18;2.40;;;14.50;59.70;;;;;;6168975;23;20013;-75
2021/05/03 10:28:27;;;;;;;3.92;2.33;;;14.50;59.70;;;;;;6168684;23;20044;-75
2021/05/03 10:30:57;;;;;;;2.42;2.05;;;14.50;59.60;;;;;;6169111;23;20072;-74
2021/05/03 10:33:37;;;;;;;2.78;2.22;;;14.50;59.60;;;;;;6167802;23;20016;-75
2021/05/03 10:36:05;;;;;;;3.50;2.08;;;14.50;59.60;;;;;;6168564;23;20024;-75
2021/05/03 10:38:39;;;;;;;3.13;2.17;;;14.50;59.60;;;;;;6159203;23;20013;-75
2021/05/03 10:41:34;;;;;;;5.13;2.08;;;14.50;59.50;;;;;;6168376;23;20075;-75
2021/05/03 10:44:19;;;;;;;3.10;2.10;;;14.50;59.50;;;;;;6168189;23;20010;-75
2021/05/03 10:52:05;;;;;;;2.45;2.00;;;14.50;59.50;;;;;;6168154;23;20276;-75
2021/05/03 10:54:45;;;;;;;3.45;2.00;;;14.50;59.50;;;;;;6168082;23;20010;-75
2021/05/03 10:57:15;;;;;;;3.75;2.20;;;14.50;59.40;;;;;;6167951;23;20075;-75
2021/05/03 10:59:53;;;;;;;3.50;1.83;;;14.50;59.40;;;;;;6168009;23;20017;-75
2021/05/03 11:02:20;;;;;;;2.85;1.98;;;14.50;59.40;;;;;;6158024;23;20014;-75
2021/05/03 11:05:27;;;;;;;3.03;1.85;;;14.50;59.40;;;;;;6168704;23;20013;-75
2021/05/03 11:08:05;;;;;;;3.53;2.08;;;14.50;59.40;;;;;;6168286;23;20071;-75
2021/05/03 11:11:02;;;;;;;2.35;2.03;;;14.50;59.40;;;;;;6158080;23;20024;-75
2021/05/03 11:13:52;;;;;;;2.70;2.33;;;14.60;59.40;;;;;;6167805;23;20009;-75
2021/05/03 11:16:27;;;;;;;2.78;2.20;;;14.50;59.40;;;;;;6167942;23;20044;-75
2021/05/03 11:18:55;;;;;;;3.53;1.95;;;14.50;59.30;;;;;;6167890;23;20427;-74
2021/05/03 11:21:47;;;;;;;2.90;2.15;;;14.50;59.30;;;;;;6167681;23;20064;-75
2021/05/03 11:24:36;;;;;;;2.55;2.30;;;14.60;59.40;;;;;;6167917;23;20017;-75
2021/05/03 11:32:07;;;;;;;3.15;2.20;;;14.60;59.30;;;;;;6167898;23;20075;-74
2021/05/03 11:34:57;;;;;;;2.85;2.03;;;14.50;59.30;;;;;;6167279;23;20009;-75
2021/05/03 11:37:39;;;;;;;3.75;2.72;;;14.50;59.30;;;;;;6168502;23;20041;-75
2021/05/03 11:45:24;;;;;;;3.65;2.50;;;14.60;59.20;;;;;;6167279;23;20014;-75
2021/05/03 11:47:53;;;;;;;3.10;2.40;;;14.60;59.20;;;;;;6167787;23;20273;-75
2021/05/03 11:50:20;;;;;;;3.38;2.00;;;14.60;59.10;;;;;;6167942;23;20016;-75
2021/05/03 11:52:46;;;;;;;3.60;2.53;;;14.60;59.10;;;;;;6168352;23;20020;-75
2021/05/03 11:55:18;;;;;;;3.38;2.40;;;14.60;59.10;;;;;;6169346;23;20096;-75
2021/05/03 11:57:45;;;;;;;3.88;2.70;;;14.60;59.10;;;;;;6160159;23;20013;-75
2021/05/03 12:00:17;;;;;;;3.60;2.88;;;14.60;59.10;;;;;;6169734;23;20022;-75
2021/05/03 12:02:43;;;;;;;4.90;2.85;;;14.60;59.10;;;;;;6160080;23;20009;-75
2021/05/03 12:05:18;;;;;;;4.38;2.42;;;14.60;59.10;;;;;;6170379;23;20407;-75
2021/05/03 12:07:45;;;;;;;3.60;2.70;;;14.60;59.10;;;;;;6169625;23;20013;-75
2021/05/03 12:10:15;;;;;;;3.47;2.78;;;14.60;59.20;;;;;;6169442;23;20013;-75
2021/05/03 12:12:48;;;;;;;4.05;2.70;;;14.60;59.10;;;;;;6160485;23;20009;-75
2021/05/03 12:15:18;;;;;;;4.32;2.92;;;14.60;59.10;;;;;;6159553;23;20028;-75
2021/05/03 12:17:44;;;;;;;4.15;2.50;;;14.60;59.20;;;;;;6170171;23;20009;-75
2021/05/03 12:20:14;;;;;;;3.90;2.70;;;14.60;59.20;;;;;;6169456;23;20013;-75
2021/05/03 12:23:03;;;;;;;3.70;2.85;;;14.60;59.30;;;;;;6169045;23;20033;-75
2021/05/03 12:25:40;;;;;;;2.75;2.55;;;14.60;59.20;;;;;;6170131;23;20100;-75
2021/05/03 12:28:14;;;;;;;5.78;2.88;;;14.60;59.20;;;;;;6169412;23;20013;-75
2021/05/03 12:30:41;;;;;;;3.85;2.75;;;14.60;59.20;;;;;;6159347;23;20017;-75
2021/05/03 12:33:15;;;;;;;5.07;2.53;;;14.60;59.20;;;;;;6159240;23;20018;-75
2021/05/03 12:35:41;;;;;;;2.80;2.40;;;14.60;59.10;;;;;;6159069;23;20407;-75
2021/05/03 12:38:18;;;;;;;4.03;2.75;;;14.60;59.10;;;;;;6169640;23;20009;-75
2021/05/03 12:40:44;;;;;;;2.95;2.30;;;14.60;59.10;;;;;;6169932;23;20020;-75
2021/05/03 12:43:12;;;;;;;3.30;2.42;;;14.60;59.10;;;;;;6159152;23;20084;-75
2021/05/03 12:45:55;;;;;;;2.72;2.20;;;14.70;59.20;;;;;;6166392;23;20426;-74
2021/05/03 12:51:32;;;;;;;3.03;2.13;;;14.70;59.20;;;;;;6169066;23;20430;-75
2021/05/03 13:29:07;;;;;;;2.75;1.17;;;14.70;59.00;;;;;;6168887;23;20017;-75
2021/05/03 13:31:35;;;;;;;2.15;1.50;;;14.70;59.70;;;;;;6168800;23;20014;-75
2021/05/03 13:34:02;;;;;;;3.03;1.63;;;14.70;59.00;;;;;;6168257;23;20312;-74
2021/05/03 13:36:28;;;;;;;3.38;1.80;;;14.70;59.00;;;;;;6159185;23;20152;-75
2021/05/03 13:38:55;;;;;;;3.13;1.40;;;14.70;59.00;;;;;;6168781;23;20039;-75
2021/05/03 13:41:22;;;;;;;2.30;1.27;;;14.70;59.00;;;;;;6169425;23;20080;-75
2021/05/03 13:43:48;;;;;;;2.17;1.50;;;14.70;59.00;;;;;;6168694;23;20347;-75
2021/05/03 13:46:14;;;;;;;2.00;1.30;;;14.70;58.90;;;;;;6159628;23;20068;-75
2021/05/03 13:48:40;;;;;;;2.90;1.30;;;14.70;58.90;;;;;;6168652;23;20411;-74
2021/05/03 13:51:08;;;;;;;2.83;1.40;;;14.70;58.90;;;;;;6168961;23;20017;-75
2021/05/03 13:53:35;;;;;;;3.17;1.52;;;14.70;58.80;;;;;;6168388;23;20434;-75
2021/05/03 13:56:01;;;;;;;2.72;1.20;;;14.70;58.80;;;;;;6168620;23;20020;-75
2021/05/03 13:58:27;;;;;;;2.78;1.40;;;14.70;58.70;;;;;;6168475;23;20040;-75
2021/05/03 14:00:54;;;;;;;3.10;1.25;;;14.70;58.70;;;;;;6169082;23;20044;-75
2021/05/03 14:03:20;;;;;;;1.40;1.00;;;14.70;58.70;;;;;;6168862;23;20013;-75
2021/05/03 14:05:46;;;;;;;2.00;0.90;;;14.70;58.80;;;;;;6168509;23;20415;-75
2021/05/03 14:08:13;;;;;;;1.38;1.02;;;14.70;58.80;;;;;;6169134;23;20399;-75